หน้าหลัก
METAR-TAF:

METAR-TAF

ท่าอากาศยาน :

แนสซอ, บาฮามาส

ละติจูด: 25-03N, ลองจิจูด: 077-28W, ความสูง: 3 ม.

การสังเกตสภาพอากาศปัจจุบัน

รายงานได้ทำขึ้นเมื่อ 45 นาทีที่แล้ว ณ เวลา 05:00 UTC
ลม 2 นอตจากทิศทางซึ่งแปรผันได้
อุณหภูมิ 26°C
ความชื้น 89%
ความกดอากาศ 1017 hPa
ทัศนวิสัย 10 กม. หรือมากกว่า
มีเมฆน้อยที่ความสูง 2000 ฟุต

METAR: MYNN 300500Z VRB02KT 9999 FEW020 26/24 A3004

เวลา: 01:45 (05:45 UTC)

การพยากรณ์

รายงานได้ทำขึ้นเมื่อ 6 ชั่วโมงและ 33 นาทีที่แล้ว ณ เวลา 23:12 UTC
การพยากรณ์มีผลตั้งแต่วันที่ 30 ณ เวลา 00 UTC จนถึงวันที่ 30 ณ เวลา 24 UTC
ลม 3 นอตจากตะวันออก
ทัศนวิสัย 10 กม. หรือมากกว่า
มีเมฆกระจายเป็นบางส่วนที่ความสูง 3500 ฟุต
ความน่าจะเป็น 30% :
ชั่วคราว
ตั้งแต่วันที่ 30 ณ เวลา 10 UTC จนถึงวันที่ 30 ณ เวลา 16 UTC
ลม 3 นอตจากทิศทางซึ่งแปรผันได้
ทัศนวิสัย: 9000 ม.
มีเมฆน้อยที่ความสูง 1500 ฟุต, คิวมูโลนิมบัส.
มีเมฆเป็นส่วนมากเว้นเป็นระยะที่ความสูง 2500 ฟุต
ฝนโปรยปราย, พายุฝนฟ้าคะนองในบริเวณใกล้เคียง,

TAF: MYNN 292312Z 3000/3024 10003KT 9999 SCT035 PROB30 TEMPO 3010/3016 VRB03KT 9000 SHRA VCTS FEW015CB BKN025

สังเกตการณ์สภาพอากาศและพยากรณ์อากาศของสนามบินมากกว่า 4000 แห่ง (รายงาน METAR และ TAF).

สถานีที่ดูได้จะแสดงไว้ด้วยจุดสีเหลืองและสีแดงบนแผนที่.

เลื่อนเมาส์ไปเหนือจุดเพื่อดูชื่อสถานี.

แล้วคลิกเพื่อดูสังเกตการณ์และการพยากรณ์สภาพอากาศ.

ในการเปลี่ยนแผนที่: คลิกที่ปุ่มสีเขียวที่มีกากบาทสีดำเพื่อซูมเข้า; ที่ปุ่มสีเขียวที่มีขีดเพื่อซูมออก; หรือที่ลูกศรสีเขียวเพื่อไปยังแผนที่ที่อยู่ติดกัน.


METAR-TAF: